MSC Barbara — HODU — position and weather

sailwx.info

Track history (hours):
 
Tides and Currents Weather Stations Pressure Air Temp Water Temp Dewpoint Dewpoint Depression Visibility Wind Speed Wind Dir Waves Ship Positions

MSC Barbara

Last reported at 2018-Apr-22 04:33 UTC. Time now 2018-Apr-22 10:51 UTC.
Position N 01°16' E 103°22'.

Length 303 m; draft 13.2 m.

Type: Ship. MMSI: 353775000.

Date/timePositionNaut miles runAvg speedWind from/ knotsBaromVisibWave heightAir tempDewpointWater temp
2018-Apr-22 04:33N 01°16' E 103°22'220.1
2018-Apr-22 04:26N 01°15' E 103°24'919.9
2018-Apr-22 03:59N 01°12' E 103°33'714.0
2018-Apr-22 03:30N 01°12' E 103°39'712.8
2018-Apr-22 03:00N 01°16' E 103°45'1 1.5
2018-Apr-22 02:28N 01°17' E 103°45'0 0.0
2018-Apr-22 01:57N 01°17' E 103°45'0 0.0
2018-Apr-22 01:30N 01°17' E 103°45'0 0.0
2018-Apr-22 00:51N 01°17' E 103°45'0 0.0
2018-Apr-22 00:30N 01°17' E 103°45'0 0.0
2018-Apr-21 23:57N 01°17' E 103°45'0 0.0
2018-Apr-21 23:23N 01°17' E 103°45'0 0.0
2018-Apr-21 22:59N 01°17' E 103°45'0 0.0
2018-Apr-21 22:29N 01°17' E 103°45'0 0.0
2018-Apr-21 21:59N 01°17' E 103°45'0 0.0
2018-Apr-21 21:29N 01°17' E 103°45'0 0.0
2018-Apr-21 20:58N 01°17' E 103°45'0 0.0
2018-Apr-21 20:28N 01°17' E 103°45'0 0.0
2018-Apr-21 19:58N 01°17' E 103°45'0 0.0
2018-Apr-21 19:28N 01°17' E 103°45'0 0.0
2018-Apr-21 18:57N 01°17' E 103°45'0 0.0
2018-Apr-21 18:30N 01°17' E 103°45'0 0.0
2018-Apr-21 17:57N 01°17' E 103°45'0 0.0
2018-Apr-21 17:30N 01°17' E 103°45'0 0.0
2018-Apr-21 17:00N 01°17' E 103°45'0 0.0
2018-Apr-21 16:26N 01°17' E 103°45'0 0.0
2018-Apr-21 15:59N 01°17' E 103°45'0 0.0
2018-Apr-21 15:29N 01°17' E 103°45'0 0.0
2018-Apr-21 14:59N 01°17' E 103°45'0 0.0
2018-Apr-21 14:28N 01°17' E 103°45'0 0.0
2018-Apr-21 13:58N 01°17' E 103°45'0 0.0
2018-Apr-21 13:28N 01°17' E 103°45'0 0.0
2018-Apr-21 12:58N 01°17' E 103°45'0 0.0
2018-Apr-21 12:28N 01°17' E 103°45'0 0.0
2018-Apr-21 11:57N 01°17' E 103°45'0 0.0
2018-Apr-21 11:30N 01°17' E 103°45'0 0.0
2018-Apr-21 10:51N 01°17' E 103°45'0 0.0
2018-Apr-21 10:30N 01°17' E 103°45'0 0.0
2018-Apr-21 10:00N 01°17' E 103°45'0 0.0
2018-Apr-21 09:29N 01°17' E 103°45'0 0.0
2018-Apr-21 08:59N 01°17' E 103°45'0 0.0
2018-Apr-21 08:29N 01°17' E 103°45'0 0.0
2018-Apr-21 07:56N 01°17' E 103°45'0 0.0
2018-Apr-21 07:28N 01°17' E 103°45'0 0.0
2018-Apr-21 06:58N 01°17' E 103°45'0 0.0
2018-Apr-21 06:28N 01°17' E 103°45'0 0.0
2018-Apr-21 05:58N 01°17' E 103°45'0 0.0
2018-Apr-21 05:28N 01°17' E 103°45'0 0.0
2018-Apr-21 04:57N 01°17' E 103°45'0 0.0
2018-Apr-21 04:30N 01°17' E 103°45'0 0.0
2018-Apr-21 03:57N 01°17' E 103°45'0 0.0
2018-Apr-21 03:30N 01°17' E 103°45'0 0.0
2018-Apr-21 02:58N 01°17' E 103°45'0 0.0
2018-Apr-21 02:30N 01°17' E 103°45'0 0.0
2018-Apr-21 02:00N 01°17' E 103°45'0 0.0
2018-Apr-21 01:29N 01°17' E 103°45'0 0.0
2018-Apr-21 00:55N 01°17' E 103°45'0 0.2
2018-Apr-21 00:30N 01°17' E 103°45'1 2.0
2018-Apr-21 00:00N 01°16' E 103°46'3 5.7
2018-Apr-20 23:30N 01°14' E 103°48'0 0.1
2018-Apr-20 23:00N 01°14' E 103°48'0 0.0
2018-Apr-20 22:31N 01°14' E 103°48'1 2.0
2018-Apr-20 22:00N 01°13' E 103°48'3 6.5
2018-Apr-20 21:30N 01°13' E 103°51'3 5.8
2018-Apr-20 21:00N 01°14' E 103°54'3 6.8
2018-Apr-20 20:31N 01°15' E 103°57'4 7.2
2018-Apr-20 19:58N 01°16' E 104°01'  
2018-Apr-15 20:50S 31°55' E 115°35'411.5
2018-Apr-15 20:28S 31°57' E 115°39'5 9.8
2018-Apr-15 20:01S 32°01' E 115°42'3 6.0
2018-Apr-15 19:30S 32°03' E 115°45'0 0.3
2018-Apr-15 19:00S 32°03' E 115°45'0 0.0
2018-Apr-15 18:27S 32°03' E 115°45'0 0.0
2018-Apr-15 18:00S 32°03' E 115°45'0 0.0
2018-Apr-15 17:27S 32°03' E 115°45'0 0.0
2018-Apr-15 17:00S 32°03' E 115°45'0 0.0
2018-Apr-15 16:26S 32°03' E 115°45'0 0.0
2018-Apr-15 15:56S 32°03' E 115°45'0 0.0
2018-Apr-15 15:26S 32°03' E 115°45'0 0.0
2018-Apr-15 14:50S 32°03' E 115°45'0 0.0
2018-Apr-15 14:28S 32°03' E 115°45'0 0.0
2018-Apr-15 13:55S 32°03' E 115°45'0 0.0
2018-Apr-15 13:25S 32°03' E 115°45'0 0.0
2018-Apr-15 12:58S 32°03' E 115°45'0 0.0
2018-Apr-15 12:28S 32°03' E 115°45'0 0.0
2018-Apr-15 11:54S 32°03' E 115°45'0 0.0
2018-Apr-15 11:30S 32°03' E 115°45'0 0.0
2018-Apr-15 10:54S 32°03' E 115°45'0 0.0
2018-Apr-15 10:30S 32°03' E 115°45'0 0.0
2018-Apr-15 09:56S 32°03' E 115°45'0 0.0
2018-Apr-15 09:29S 32°03' E 115°45'0 0.0
2018-Apr-15 08:59S 32°03' E 115°45'0 0.0
2018-Apr-15 08:29S 32°03' E 115°45'0 0.0
2018-Apr-15 07:56S 32°03' E 115°45'0 0.0
2018-Apr-15 07:28S 32°03' E 115°45'0 0.0
2018-Apr-15 06:58S 32°03' E 115°45'0 0.0
2018-Apr-15 06:28S 32°03' E 115°45'0 0.0
2018-Apr-15 05:49S 32°03' E 115°45'0 0.0
2018-Apr-15 05:12S 32°03' E 115°45'0 0.0
2018-Apr-15 04:54S 32°03' E 115°45'0 0.0
2018-Apr-15 04:27S 32°03' E 115°45'0 0.0
2018-Apr-15 03:45S 32°03' E 115°45'0 0.0
2018-Apr-15 03:27S 32°03' E 115°45'0 0.0
2018-Apr-15 02:26S 32°03' E 115°45'0 0.0
2018-Apr-15 01:44S 32°03' E 115°45'0 0.0
2018-Apr-15 01:29S 32°03' E 115°45'0 0.0
2018-Apr-15 00:59S 32°03' E 115°45'0 0.0
2018-Apr-15 00:28S 32°03' E 115°45'0 0.0
2018-Apr-14 23:58S 32°03' E 115°45'0 0.0
2018-Apr-14 23:28S 32°03' E 115°45'0 0.0
2018-Apr-14 22:49S 32°03' E 115°45'0 0.0
2018-Apr-14 22:25S 32°03' E 115°45'0 0.0
2018-Apr-14 22:00S 32°03' E 115°45'0 0.0
2018-Apr-14 21:30S 32°03' E 115°45'0 0.0
2018-Apr-14 21:00S 32°03' E 115°45'0 0.0
2018-Apr-14 20:27S 32°03' E 115°45'0 0.0
2018-Apr-14 19:59S 32°03' E 115°45'0 0.0
2018-Apr-14 19:29S 32°03' E 115°45'0 0.0
2018-Apr-14 18:53S 32°03' E 115°45'0 0.0
2018-Apr-14 18:29S 32°03' E 115°45'0 0.0
2018-Apr-14 17:25S 32°03' E 115°45'0 0.0
2018-Apr-14 16:58S 32°03' E 115°45'0 0.0
2018-Apr-14 16:25S 32°03' E 115°45'0 0.0
2018-Apr-14 15:55S 32°03' E 115°45'0 0.0
2018-Apr-14 15:28S 32°03' E 115°45'0 0.0
2018-Apr-14 14:57S 32°03' E 115°45'0 0.0
2018-Apr-14 13:48S 32°03' E 115°45'0 0.0
2018-Apr-14 13:30S 32°03' E 115°45'0 0.0
2018-Apr-14 12:59S 32°03' E 115°45'0 0.0
2018-Apr-14 12:26S 32°03' E 115°45'0 0.0
2018-Apr-14 11:59S 32°03' E 115°45'0 0.0
2018-Apr-14 10:40S 32°03' E 115°45'0 0.0
2018-Apr-14 10:28S 32°03' E 115°45'0 0.0
2018-Apr-14 09:58S 32°03' E 115°45'0 0.0
2018-Apr-14 09:25S 32°03' E 115°45'0 0.0
2018-Apr-14 08:52S 32°03' E 115°45'0 0.2
2018-Apr-14 08:29S 32°03' E 115°45'3 6.1
2018-Apr-14 08:00S 32°01' E 115°42'612.0
2018-Apr-14 07:30S 31°56' E 115°38'510.4
2018-Apr-14 06:59S 31°56' E 115°31'810.3
2018-Apr-14 06:12S 31°58' E 115°22'  
Track history (hours):
 
Tides and Currents Weather Stations Pressure Air Temp Water Temp Dewpoint Dewpoint Depression Visibility Wind Speed Wind Dir Waves Ship Positions

MSC Barbara

Last reported at 2018-Apr-22 04:33 UTC. Time now 2018-Apr-22 10:51 UTC.
Position N 01°16' E 103°22'.

Length 303 m; draft 13.2 m.

Type: Ship. MMSI: 353775000.

Date/timePositionNaut miles runAvg speedWind from/ knotsBaromVisibWave heightAir tempDewpointWater temp
2018-Apr-22 04:33N 01°16' E 103°22'220.1
2018-Apr-22 04:26N 01°15' E 103°24'919.9
2018-Apr-22 03:59N 01°12' E 103°33'714.0
2018-Apr-22 03:30N 01°12' E 103°39'712.8
2018-Apr-22 03:00N 01°16' E 103°45'1 1.5
2018-Apr-22 02:28N 01°17' E 103°45'0 0.0
2018-Apr-22 01:57N 01°17' E 103°45'0 0.0
2018-Apr-22 01:30N 01°17' E 103°45'0 0.0
2018-Apr-22 00:51N 01°17' E 103°45'0 0.0
2018-Apr-22 00:30N 01°17' E 103°45'0 0.0
2018-Apr-21 23:57N 01°17' E 103°45'0 0.0
2018-Apr-21 23:23N 01°17' E 103°45'0 0.0
2018-Apr-21 22:59N 01°17' E 103°45'0 0.0
2018-Apr-21 22:29N 01°17' E 103°45'0 0.0
2018-Apr-21 21:59N 01°17' E 103°45'0 0.0
2018-Apr-21 21:29N 01°17' E 103°45'0 0.0
2018-Apr-21 20:58N 01°17' E 103°45'0 0.0
2018-Apr-21 20:28N 01°17' E 103°45'0 0.0
2018-Apr-21 19:58N 01°17' E 103°45'0 0.0
2018-Apr-21 19:28N 01°17' E 103°45'0 0.0
2018-Apr-21 18:57N 01°17' E 103°45'0 0.0
2018-Apr-21 18:30N 01°17' E 103°45'0 0.0
2018-Apr-21 17:57N 01°17' E 103°45'0 0.0
2018-Apr-21 17:30N 01°17' E 103°45'0 0.0
2018-Apr-21 17:00N 01°17' E 103°45'0 0.0
2018-Apr-21 16:26N 01°17' E 103°45'0 0.0
2018-Apr-21 15:59N 01°17' E 103°45'0 0.0
2018-Apr-21 15:29N 01°17' E 103°45'0 0.0
2018-Apr-21 14:59N 01°17' E 103°45'0 0.0
2018-Apr-21 14:28N 01°17' E 103°45'0 0.0
2018-Apr-21 13:58N 01°17' E 103°45'0 0.0
2018-Apr-21 13:28N 01°17' E 103°45'0 0.0
2018-Apr-21 12:58N 01°17' E 103°45'0 0.0
2018-Apr-21 12:28N 01°17' E 103°45'0 0.0
2018-Apr-21 11:57N 01°17' E 103°45'0 0.0
2018-Apr-21 11:30N 01°17' E 103°45'0 0.0
2018-Apr-21 10:51N 01°17' E 103°45'0 0.0
2018-Apr-21 10:30N 01°17' E 103°45'0 0.0
2018-Apr-21 10:00N 01°17' E 103°45'0 0.0
2018-Apr-21 09:29N 01°17' E 103°45'0 0.0
2018-Apr-21 08:59N 01°17' E 103°45'0 0.0
2018-Apr-21 08:29N 01°17' E 103°45'0 0.0
2018-Apr-21 07:56N 01°17' E 103°45'0 0.0
2018-Apr-21 07:28N 01°17' E 103°45'0 0.0
2018-Apr-21 06:58N 01°17' E 103°45'0 0.0
2018-Apr-21 06:28N 01°17' E 103°45'0 0.0
2018-Apr-21 05:58N 01°17' E 103°45'0 0.0
2018-Apr-21 05:28N 01°17' E 103°45'0 0.0
2018-Apr-21 04:57N 01°17' E 103°45'0 0.0
2018-Apr-21 04:30N 01°17' E 103°45'0 0.0
2018-Apr-21 03:57N 01°17' E 103°45'0 0.0
2018-Apr-21 03:30N 01°17' E 103°45'0 0.0
2018-Apr-21 02:58N 01°17' E 103°45'0 0.0
2018-Apr-21 02:30N 01°17' E 103°45'0 0.0
2018-Apr-21 02:00N 01°17' E 103°45'0 0.0
2018-Apr-21 01:29N 01°17' E 103°45'0 0.0
2018-Apr-21 00:55N 01°17' E 103°45'0 0.2
2018-Apr-21 00:30N 01°17' E 103°45'1 2.0
2018-Apr-21 00:00N 01°16' E 103°46'3 5.7
2018-Apr-20 23:30N 01°14' E 103°48'0 0.1
2018-Apr-20 23:00N 01°14' E 103°48'0 0.0
2018-Apr-20 22:31N 01°14' E 103°48'1 2.0
2018-Apr-20 22:00N 01°13' E 103°48'3 6.5
2018-Apr-20 21:30N 01°13' E 103°51'3 5.8
2018-Apr-20 21:00N 01°14' E 103°54'3 6.8
2018-Apr-20 20:31N 01°15' E 103°57'4 7.2
2018-Apr-20 19:58N 01°16' E 104°01'  
2018-Apr-15 20:50S 31°55' E 115°35'411.5
2018-Apr-15 20:28S 31°57' E 115°39'5 9.8
2018-Apr-15 20:01S 32°01' E 115°42'3 6.0
2018-Apr-15 19:30S 32°03' E 115°45'0 0.3
2018-Apr-15 19:00S 32°03' E 115°45'0 0.0
2018-Apr-15 18:27S 32°03' E 115°45'0 0.0
2018-Apr-15 18:00S 32°03' E 115°45'0 0.0
2018-Apr-15 17:27S 32°03' E 115°45'0 0.0
2018-Apr-15 17:00S 32°03' E 115°45'0 0.0
2018-Apr-15 16:26S 32°03' E 115°45'0 0.0
2018-Apr-15 15:56S 32°03' E 115°45'0 0.0
2018-Apr-15 15:26S 32°03' E 115°45'0 0.0
2018-Apr-15 14:50S 32°03' E 115°45'0 0.0
2018-Apr-15 14:28S 32°03' E 115°45'0 0.0
2018-Apr-15 13:55S 32°03' E 115°45'0 0.0
2018-Apr-15 13:25S 32°03' E 115°45'0 0.0
2018-Apr-15 12:58S 32°03' E 115°45'0 0.0
2018-Apr-15 12:28S 32°03' E 115°45'0 0.0
2018-Apr-15 11:54S 32°03' E 115°45'0 0.0
2018-Apr-15 11:30S 32°03' E 115°45'0 0.0
2018-Apr-15 10:54S 32°03' E 115°45'0 0.0
2018-Apr-15 10:30S 32°03' E 115°45'0 0.0
2018-Apr-15 09:56S 32°03' E 115°45'0 0.0
2018-Apr-15 09:29S 32°03' E 115°45'0 0.0
2018-Apr-15 08:59S 32°03' E 115°45'0 0.0
2018-Apr-15 08:29S 32°03' E 115°45'0 0.0
2018-Apr-15 07:56S 32°03' E 115°45'0 0.0
2018-Apr-15 07:28S 32°03' E 115°45'0 0.0
2018-Apr-15 06:58S 32°03' E 115°45'0 0.0
2018-Apr-15 06:28S 32°03' E 115°45'0 0.0
2018-Apr-15 05:49S 32°03' E 115°45'0 0.0
2018-Apr-15 05:12S 32°03' E 115°45'0 0.0
2018-Apr-15 04:54S 32°03' E 115°45'0 0.0
2018-Apr-15 04:27S 32°03' E 115°45'0 0.0
2018-Apr-15 03:45S 32°03' E 115°45'0 0.0
2018-Apr-15 03:27S 32°03' E 115°45'0 0.0
2018-Apr-15 02:26S 32°03' E 115°45'0 0.0
2018-Apr-15 01:44S 32°03' E 115°45'0 0.0
2018-Apr-15 01:29S 32°03' E 115°45'0 0.0
2018-Apr-15 00:59S 32°03' E 115°45'0 0.0
2018-Apr-15 00:28S 32°03' E 115°45'0 0.0
2018-Apr-14 23:58S 32°03' E 115°45'0 0.0
2018-Apr-14 23:28S 32°03' E 115°45'0 0.0
2018-Apr-14 22:49S 32°03' E 115°45'0 0.0
2018-Apr-14 22:25S 32°03' E 115°45'0 0.0
2018-Apr-14 22:00S 32°03' E 115°45'0 0.0
2018-Apr-14 21:30S 32°03' E 115°45'0 0.0
2018-Apr-14 21:00S 32°03' E 115°45'0 0.0
2018-Apr-14 20:27S 32°03' E 115°45'0 0.0
2018-Apr-14 19:59S 32°03' E 115°45'0 0.0
2018-Apr-14 19:29S 32°03' E 115°45'0 0.0
2018-Apr-14 18:53S 32°03' E 115°45'0 0.0
2018-Apr-14 18:29S 32°03' E 115°45'0 0.0
2018-Apr-14 17:25S 32°03' E 115°45'0 0.0
2018-Apr-14 16:58S 32°03' E 115°45'0 0.0
2018-Apr-14 16:25S 32°03' E 115°45'0 0.0
2018-Apr-14 15:55S 32°03' E 115°45'0 0.0
2018-Apr-14 15:28S 32°03' E 115°45'0 0.0
2018-Apr-14 14:57S 32°03' E 115°45'0 0.0
2018-Apr-14 13:48S 32°03' E 115°45'0 0.0
2018-Apr-14 13:30S 32°03' E 115°45'0 0.0
2018-Apr-14 12:59S 32°03' E 115°45'0 0.0
2018-Apr-14 12:26S 32°03' E 115°45'0 0.0
2018-Apr-14 11:59S 32°03' E 115°45'0 0.0
2018-Apr-14 10:40S 32°03' E 115°45'0 0.0
2018-Apr-14 10:28S 32°03' E 115°45'0 0.0
2018-Apr-14 09:58S 32°03' E 115°45'0 0.0
2018-Apr-14 09:25S 32°03' E 115°45'0 0.0
2018-Apr-14 08:52S 32°03' E 115°45'0 0.2
2018-Apr-14 08:29S 32°03' E 115°45'3 6.1
2018-Apr-14 08:00S 32°01' E 115°42'612.0
2018-Apr-14 07:30S 31°56' E 115°38'510.4
2018-Apr-14 06:59S 31°56' E 115°31'810.3
2018-Apr-14 06:12S 31°58' E 115°22'  

Dump ship's entire track history